FKYSHECA

Guest
Details From FKYS - Yaounde Nsimalen
To HECA - Cairo Intl
Flight Number -
Tags Generated
Created
Modified
Stats Distance 1,947 nm / 3,606 km
Max Altitude 0 ft / 0 m
Waypoints 4
Social Downloads 0
Likes 0
Share VATSIM

Download

Looking for another format? Having issues loading an existing format? Contact us
Advertisement - Login to hide

Notes

Generated

Route

FKYS MEKAL CVO67 HECA

ID Type Via Altitude Latitude Longitude Leg Dist Tot Dist Heading (true) Name
O FKYS APT - 0 ft / 0 m 3.70741˚ 11.55063˚ - 0 nm - -
MEKAL FIX - 0 ft / 0 m 9.39944˚ 15.30028˚ 408 nm 408 nm 33° / 33° -
CVO67 FIX - 0 ft / 0 m 30.02844˚ 31.30244˚ 1529 nm 1938 nm 34° / 39° -
O HECA APT - 0 ft / 0 m 30.13821˚ 31.40615˚ 8 nm 1946 nm 39° / 39° -

Altitude Profile

Advertisement - Login to hide

Weather


0- 5 10 15 20 25 30 35+ Temperature / ° C

Clouds and Precipitation
Forecast for 2018-05-27 18:00 UTC. Updated 4 hours ago

Ground ~20,000 ft ~40,000 ft Winds

FKYS

Details ICAO FKYS (NSI)
Name YAOUNDE NSIMALEN
Region Cameroon
Timezone Africa/Douala (UTC+1.0)
Stats Elevation 2,278 ft / 694 m (AMSL)
Location 3.722554° 11.553270°
Runways 1
Magnetic Variation 0.636° W

METAR

FKYS 272000Z /////KT 8000 TS FEW010 FEW020CB 22/21 Q1018 NOSIG

Decode

TAF

TAF TAF FKYS 271700Z 2718/2818 VRB03KT 9999 TS BKN016 FEW020CB TEMPO 2720/2724 4000 TSRA BECMG 2720/2722 BKN006 BECMG 2805/2807 NSW BECMG 2807/2809 BKN016

Decode

Departure Runways

ID Width Length Bearing (true) Bearing (mag) Surface Threshold Offset Overrun Length
01 148 ft / 45 m 11,220 ft / 3,420 m 9.87° 10.51° Asphalt 0 ft / 0 m 200 ft / 61 m
19 148 ft / 45 m 11,220 ft / 3,420 m 189.87° 190.51° Asphalt 0 ft / 0 m 200 ft / 61 m

HECA

Details ICAO HECA (CAI)
Name Cairo Intl
Region Egypt
Timezone Africa/Cairo (UTC+2.0)
Stats Elevation 382 ft / 116 m (AMSL)
Location 30.121808° 31.406095°
Runways 3
Magnetic Variation 4.442° E

METAR

HECA 272100Z 05011KT CAVOK 25/18 Q1012 NOSIG

Decode

TAF

TAF HECA 271700Z 2718/2824 03010KT 9999 SCT025= TAF HEAX 271700Z 2718/2824 31010KT 9999 FEW020 TEMPO 2800/2806 VRB03KT 3000 BR NSC PROB30 TEMPO 2801/2806 0500 FG

Decode

Destination Runways

ID Width Length Bearing (true) Bearing (mag) Surface Threshold Offset Overrun Length
05L 197 ft / 60 m 10,833 ft / 3,302 m 49.29° 44.85° Asphalt 0 ft / 0 m 185 ft / 56 m
05R 197 ft / 60 m 13,126 ft / 4,001 m 49.03° 44.59° Asphalt 0 ft / 0 m 216 ft / 66 m
16 197 ft / 60 m 10,456 ft / 3,187 m 162.61° 158.17° Asphalt 0 ft / 0 m 125 ft / 38 m
23L 197 ft / 60 m 13,126 ft / 4,001 m 229.05° 224.61° Asphalt 0 ft / 0 m 225 ft / 69 m
23R 197 ft / 60 m 10,833 ft / 3,302 m 229.30° 224.86° Asphalt 0 ft / 0 m 185 ft / 56 m
34 197 ft / 60 m 10,456 ft / 3,187 m 342.61° 338.17° Asphalt 0 ft / 0 m 195 ft / 59 m

Approach Navaids

Runway Type Ident Frequency Range Bearing (true) Bearing (mag) Slope Elevation
05L Localiser CRL 110.90 MHz 18 nm / 33 km 49.27° 44.83° - 210 ft / 64 m (AMSL)
05L Glidescope CRL 110.90 MHz 10 nm / 19 km 49.29° 44.85° 3.00° 230 ft / 70 m (AMSL)
05L DME CRL 110.90 MHz 18 nm / 33 km - - - 230 ft / 70 m (AMSL)
05R Localiser IROT 109.90 MHz 18 nm / 33 km 49.04° 44.60° - 410 ft / 125 m (AMSL)
05R Glidescope IROT 109.90 MHz 10 nm / 19 km 49.04° 44.60° 3.00° 430 ft / 131 m (AMSL)
05R DME IROT 109.90 MHz 18 nm / 33 km - - - 430 ft / 131 m (AMSL)
23L Localiser ILOT 109.50 MHz 18 nm / 33 km 229.08° 224.64° - 420 ft / 128 m (AMSL)
23L Glidescope ILOT 109.50 MHz 10 nm / 19 km 229.04° 224.60° 3.00° 420 ft / 128 m (AMSL)
23L DME ILOT 109.50 MHz 18 nm / 33 km - - - 420 ft / 128 m (AMSL)
23R Localiser CRR 110.30 MHz 18 nm / 33 km 229.29° 224.85° - 210 ft / 64 m (AMSL)
23R Glidescope CRR 110.30 MHz 10 nm / 19 km 229.29° 224.85° 3.00° 230 ft / 70 m (AMSL)
23R DME CRR 110.30 MHz 18 nm / 33 km - - - 230 ft / 70 m (AMSL)